createdAt,value
2022-08-17T00:00:43.878Z,1.67
2022-08-17T00:05:30.845Z,1.30
2022-08-17T00:10:17.248Z,1.60
2022-08-17T00:15:02.594Z,1.65
2022-08-17T00:19:50.245Z,1.50
2022-08-17T00:24:35.611Z,1.58
2022-08-17T00:29:20.688Z,2.10
2022-08-17T00:34:08.908Z,1.45
2022-08-17T00:38:56.975Z,1.58
2022-08-17T00:43:45.729Z,1.65
2022-08-17T00:48:31.734Z,1.67
2022-08-17T00:53:17.218Z,1.80
2022-08-17T00:58:08.639Z,2.00
2022-08-17T01:07:39.374Z,1.88
2022-08-17T01:12:25.062Z,1.67
2022-08-17T01:17:13.265Z,1.65
2022-08-17T01:22:06.161Z,2.90
2022-08-17T01:26:53.906Z,1.70
2022-08-17T01:31:45.666Z,2.50
2022-08-17T01:36:30.809Z,1.92
2022-08-17T01:41:18.945Z,2.83
2022-08-17T01:46:06.979Z,2.25
2022-08-17T01:50:55.237Z,3.30
2022-08-17T01:55:43.942Z,2.85
2022-08-17T02:00:59.539Z,2.53
2022-08-17T02:05:39.291Z,2.28
2022-08-17T02:10:24.518Z,2.13
2022-08-17T02:15:21.150Z,2.35
2022-08-17T02:20:08.415Z,2.63
2022-08-17T02:25:00.784Z,2.58
2022-08-17T02:29:47.107Z,4.97
2022-08-17T02:34:32.556Z,2.92
2022-08-17T02:39:17.703Z,2.22
2022-08-17T02:44:06.491Z,2.00
2022-08-17T02:48:51.957Z,1.50
2022-08-17T02:53:37.277Z,1.60
2022-08-17T02:58:34.600Z,1.30
2022-08-17T03:03:23.604Z,1.13
2022-08-17T03:08:13.104Z,0.90
2022-08-17T03:12:59.687Z,0.95
2022-08-17T03:17:44.935Z,1.10
2022-08-17T03:22:36.933Z,1.23
2022-08-17T03:27:23.955Z,1.20
2022-08-17T03:32:14.840Z,1.30
2022-08-17T03:36:59.879Z,1.10
2022-08-17T03:41:47.804Z,1.10
2022-08-17T03:46:45.359Z,1.10
2022-08-17T03:51:43.079Z,1.23
2022-08-17T03:56:40.459Z,1.02
2022-08-17T04:01:28.847Z,1.48
2022-08-17T04:06:14.556Z,1.42
2022-08-17T04:11:00.760Z,1.45
2022-08-17T04:15:49.374Z,1.20
2022-08-17T04:20:37.828Z,1.80
2022-08-17T04:25:22.945Z,1.45
2022-08-17T04:30:10.236Z,1.60
2022-08-17T04:34:55.293Z,1.70
2022-08-17T04:40:04.350Z,1.90
2022-08-17T04:44:50.365Z,1.58
2022-08-17T04:49:35.468Z,1.90
2022-08-17T04:54:23.172Z,2.13
2022-08-17T04:59:13.628Z,1.80
2022-08-17T05:04:18.354Z,2.33
2022-08-17T05:09:08.277Z,1.50
2022-08-17T05:13:53.642Z,1.75
2022-08-17T05:18:41.709Z,1.50
2022-08-17T05:23:41.945Z,1.85
2022-08-17T05:28:30.318Z,2.05
2022-08-17T05:33:18.015Z,2.38
2022-08-17T05:38:08.122Z,2.55
2022-08-17T05:42:53.759Z,2.50
2022-08-17T05:47:40.936Z,2.35
2022-08-17T05:52:33.807Z,2.30
2022-08-17T05:57:47.427Z,2.20
2022-08-17T06:02:53.547Z,1.83
2022-08-17T06:07:49.090Z,2.40
2022-08-17T06:12:50.430Z,1.85
2022-08-17T06:17:37.518Z,2.25
2022-08-17T06:22:25.347Z,2.13
2022-08-17T06:27:16.752Z,2.55
2022-08-17T06:32:05.011Z,2.30
2022-08-17T06:37:00.591Z,2.53
2022-08-17T06:41:59.686Z,3.03
2022-08-17T06:46:49.243Z,3.28
2022-08-17T06:51:42.542Z,3.97
2022-08-17T06:56:53.458Z,3.45
2022-08-17T07:01:42.828Z,3.58
2022-08-17T07:06:32.338Z,3.20
2022-08-17T07:11:30.697Z,3.50
2022-08-17T07:16:21.807Z,2.72
2022-08-17T07:21:18.474Z,1.88
2022-08-17T07:26:08.376Z,1.90
2022-08-17T07:30:57.781Z,2.10
2022-08-17T07:35:44.482Z,1.88
2022-08-17T07:40:33.887Z,1.80
2022-08-17T07:45:31.234Z,2.10
2022-08-17T07:50:32.086Z,2.95
2022-08-17T07:55:29.632Z,2.90
2022-08-17T08:00:31.396Z,3.30
2022-08-17T08:05:48.753Z,3.60
2022-08-17T08:10:38.797Z,4.30
2022-08-17T08:15:39.535Z,3.67
2022-08-17T08:20:53.443Z,4.00
2022-08-17T08:26:00.289Z,3.85
2022-08-17T08:30:50.882Z,4.38
2022-08-17T08:35:42.176Z,4.38
2022-08-17T08:40:55.360Z,4.82
2022-08-17T08:45:53.213Z,4.50
2022-08-17T08:50:47.811Z,4.60
2022-08-17T08:55:43.287Z,4.57
2022-08-17T09:00:35.961Z,4.57
2022-08-17T09:05:34.409Z,4.00
2022-08-17T09:10:25.647Z,3.38
2022-08-17T09:15:18.791Z,3.10
2022-08-17T09:20:14.476Z,2.17
2022-08-17T09:25:17.337Z,1.70
2022-08-17T09:30:08.066Z,1.80
2022-08-17T09:34:55.587Z,1.48
2022-08-17T09:39:51.670Z,1.30
2022-08-17T09:44:43.098Z,1.20
2022-08-17T09:49:34.890Z,1.10
2022-08-17T09:54:39.967Z,1.02
2022-08-17T09:59:51.231Z,1.05
2022-08-17T10:04:50.470Z,1.83
2022-08-17T10:09:49.346Z,1.10
2022-08-17T10:14:44.497Z,1.08
2022-08-17T10:19:38.444Z,1.95
2022-08-17T10:24:39.632Z,1.90
2022-08-17T10:29:52.858Z,1.30
2022-08-17T10:34:56.179Z,1.13
2022-08-17T10:39:59.598Z,1.20
2022-08-17T10:44:51.905Z,3.55
2022-08-17T10:49:38.546Z,1.20
2022-08-17T10:54:43.197Z,1.00
2022-08-17T10:59:56.005Z,1.10
2022-08-17T11:04:57.112Z,1.15
2022-08-17T11:10:04.207Z,1.10
2022-08-17T11:15:04.626Z,1.15
2022-08-17T11:20:32.878Z,1.00
2022-08-17T11:25:21.044Z,0.80
2022-08-17T11:30:13.790Z,0.85
2022-08-17T11:35:12.560Z,0.60
2022-08-17T11:40:24.704Z,0.85
2022-08-17T11:45:33.980Z,0.90
2022-08-17T11:50:51.856Z,0.98
2022-08-17T11:56:05.144Z,1.05
2022-08-17T12:00:58.720Z,1.52
2022-08-17T12:05:44.205Z,1.20
2022-08-17T12:10:34.464Z,0.47
2022-08-17T12:15:22.682Z,0.60
2022-08-17T12:20:27.982Z,1.00
2022-08-17T12:25:19.268Z,0.70
2022-08-17T12:30:08.609Z,0.70
2022-08-17T12:34:54.871Z,0.40
2022-08-17T12:39:51.528Z,0.60
2022-08-17T12:44:46.109Z,0.50
2022-08-17T12:49:37.393Z,1.30
2022-08-17T12:54:31.602Z,0.70
2022-08-17T12:59:29.779Z,0.80
2022-08-17T13:04:18.822Z,1.20
2022-08-17T13:09:13.459Z,0.90
2022-08-17T13:14:10.813Z,0.52
2022-08-17T13:19:10.497Z,0.50
2022-08-17T13:24:04.390Z,0.40
2022-08-17T13:28:51.783Z,0.70
2022-08-17T13:33:44.722Z,0.40
2022-08-17T13:38:45.801Z,0.60
2022-08-17T13:43:48.664Z,0.45
2022-08-17T13:48:34.320Z,0.32
2022-08-17T13:53:22.537Z,1.10
2022-08-17T13:58:11.027Z,0.50
2022-08-17T14:02:56.119Z,0.50
2022-08-17T14:07:42.865Z,0.47
2022-08-17T14:12:30.258Z,0.60
2022-08-17T14:17:18.956Z,0.60
2022-08-17T14:22:05.089Z,0.50
2022-08-17T14:26:52.584Z,0.70
2022-08-17T14:31:37.952Z,0.55
2022-08-17T14:36:25.905Z,0.60
2022-08-17T14:41:11.475Z,0.52
2022-08-17T14:45:56.792Z,0.50
2022-08-17T14:50:44.302Z,0.70
2022-08-17T14:55:33.817Z,0.60
2022-08-17T15:00:20.013Z,0.50
2022-08-17T15:05:07.751Z,0.57
2022-08-17T15:09:52.928Z,0.57
2022-08-17T15:14:40.910Z,0.47
2022-08-17T15:19:26.181Z,0.68
2022-08-17T15:24:11.698Z,0.40
2022-08-17T15:28:57.476Z,3.28
2022-08-17T15:33:45.406Z,0.65
2022-08-17T15:38:39.373Z,0.50
2022-08-17T15:43:28.226Z,0.57
2022-08-17T15:48:14.430Z,0.50
2022-08-17T15:53:05.122Z,0.40
2022-08-17T15:57:50.527Z,0.73
2022-08-17T16:03:45.352Z,0.65
2022-08-17T16:07:43.450Z,0.52
2022-08-17T16:12:31.380Z,0.55
2022-08-17T16:17:40.330Z,0.55
2022-08-17T16:22:33.820Z,0.60
2022-08-17T16:27:18.898Z,0.60
2022-08-17T16:32:15.332Z,1.15
2022-08-17T16:37:00.724Z,0.63
2022-08-17T16:41:50.434Z,0.73
2022-08-17T16:46:36.873Z,1.10
2022-08-17T16:51:24.846Z,0.80
2022-08-17T16:56:10.282Z,0.70
2022-08-17T17:00:57.352Z,0.50
2022-08-17T17:05:58.731Z,1.02
2022-08-17T17:10:51.117Z,0.75
2022-08-17T17:15:47.937Z,1.00
2022-08-17T17:20:43.367Z,1.00
2022-08-17T17:25:32.509Z,0.80
2022-08-17T17:30:25.166Z,0.80
2022-08-17T17:35:16.285Z,0.70
2022-08-17T17:44:53.367Z,1.00
2022-08-17T17:49:44.096Z,0.73
2022-08-17T17:54:41.216Z,1.00
2022-08-17T17:59:38.321Z,0.90
2022-08-17T18:04:36.438Z,1.50
2022-08-17T18:09:35.991Z,1.23
2022-08-17T18:14:35.670Z,1.10
2022-08-17T18:19:25.228Z,1.10
2022-08-17T18:24:11.857Z,0.98
2022-08-17T18:28:59.532Z,1.15
2022-08-17T18:33:46.906Z,1.20
2022-08-17T18:38:35.885Z,1.20
2022-08-17T18:43:28.314Z,1.30
2022-08-17T18:48:38.730Z,1.30
2022-08-17T18:53:40.864Z,1.30
2022-08-17T18:58:28.737Z,1.52
2022-08-17T19:03:27.231Z,1.30
2022-08-17T19:08:25.905Z,1.42
2022-08-17T19:13:14.814Z,1.50
2022-08-17T19:18:17.803Z,1.27
2022-08-17T19:23:09.771Z,1.95
2022-08-17T19:28:03.962Z,1.63
2022-08-17T19:32:59.872Z,1.50
2022-08-17T19:37:54.903Z,1.58
2022-08-17T19:42:50.623Z,1.42
2022-08-17T19:47:55.178Z,1.38
2022-08-17T19:52:50.047Z,2.10
2022-08-17T19:57:44.952Z,2.00
2022-08-17T20:02:39.753Z,1.50
2022-08-17T20:07:32.168Z,1.70
2022-08-17T20:12:21.256Z,1.45
2022-08-17T20:17:07.391Z,1.40
2022-08-17T20:21:57.541Z,1.60
2022-08-17T20:26:58.061Z,1.63
2022-08-17T20:31:50.058Z,1.70
2022-08-17T20:36:37.087Z,2.20
2022-08-17T20:41:24.377Z,1.80
2022-08-17T20:46:33.152Z,2.30
2022-08-17T20:51:29.382Z,2.72
2022-08-17T20:56:14.456Z,2.42
2022-08-17T21:01:14.847Z,2.60
2022-08-17T21:06:16.876Z,2.88
2022-08-17T21:12:02.564Z,2.50
2022-08-17T21:16:41.443Z,2.50
2022-08-17T21:21:42.127Z,2.42
2022-08-17T21:26:50.357Z,3.35
2022-08-17T21:31:38.548Z,3.03
2022-08-17T21:36:32.628Z,3.03
2022-08-17T21:41:23.479Z,2.80
2022-08-17T21:46:13.570Z,2.85
2022-08-17T21:51:10.577Z,3.40
2022-08-17T21:55:58.314Z,3.05
2022-08-17T22:00:44.684Z,3.22
2022-08-17T22:05:37.273Z,3.60
2022-08-17T22:10:32.187Z,3.65
2022-08-17T22:15:20.768Z,4.05
2022-08-17T22:20:12.300Z,3.80
2022-08-17T22:29:53.255Z,3.65
2022-08-17T22:34:46.492Z,3.30
2022-08-17T22:39:45.010Z,3.90
2022-08-17T22:44:37.054Z,4.00
2022-08-17T22:49:30.126Z,3.70
2022-08-17T22:54:34.239Z,4.03
2022-08-17T22:59:45.405Z,4.15
2022-08-17T23:04:36.735Z,4.70
2022-08-17T23:09:25.094Z,3.80
2022-08-17T23:14:12.273Z,5.03
2022-08-17T23:18:59.980Z,4.63
2022-08-17T23:23:46.102Z,4.82
2022-08-17T23:28:35.051Z,4.68
2022-08-17T23:33:24.530Z,3.92
2022-08-17T23:38:10.358Z,3.85
2022-08-17T23:42:56.740Z,3.80
2022-08-17T23:47:47.129Z,3.92
2022-08-17T23:52:37.166Z,5.00
2022-08-17T23:57:33.842Z,4.97
